createdAt,value
2023-02-28T00:04:31.535Z,49.61
2023-02-28T00:14:56.429Z,49.30
2023-02-28T00:25:23.770Z,49.51
2023-02-28T00:35:49.091Z,50.25
2023-02-28T00:46:13.724Z,50.24
2023-02-28T00:56:38.179Z,50.30
2023-02-28T01:07:02.429Z,50.28
2023-02-28T01:17:26.969Z,50.47
2023-02-28T01:27:51.741Z,50.18
2023-02-28T01:38:22.658Z,49.68
2023-02-28T01:48:52.914Z,50.54
2023-02-28T01:59:26.117Z,51.03
2023-02-28T02:09:50.446Z,51.16
2023-02-28T02:20:58.129Z,50.43
2023-02-28T02:31:57.031Z,50.61
2023-02-28T02:42:28.535Z,50.89
2023-02-28T02:52:56.582Z,50.71
2023-02-28T03:03:31.478Z,50.55
2023-02-28T03:14:27.070Z,50.48
2023-02-28T03:24:58.649Z,50.92
2023-02-28T03:35:26.879Z,50.91
2023-02-28T03:45:53.094Z,51.05
2023-02-28T03:56:20.275Z,51.10
2023-02-28T04:06:45.666Z,51.14
2023-02-28T04:17:09.892Z,51.79
2023-02-28T04:27:34.167Z,51.56
2023-02-28T04:37:59.101Z,51.76
2023-02-28T04:48:24.373Z,52.06
2023-02-28T04:58:49.111Z,52.21
2023-02-28T05:09:13.339Z,52.50
2023-02-28T05:19:37.590Z,53.44
2023-02-28T05:30:03.957Z,53.41
2023-02-28T05:40:28.934Z,53.80
2023-02-28T05:50:53.164Z,53.99
2023-02-28T06:01:34.477Z,54.51
2023-02-28T06:12:00.548Z,54.55
2023-02-28T06:22:24.728Z,54.84
2023-02-28T06:32:49.994Z,54.85
2023-02-28T06:43:14.371Z,54.83
2023-02-28T06:53:39.381Z,55.27
2023-02-28T07:04:03.550Z,55.55
2023-02-28T07:14:27.803Z,55.24
2023-02-28T07:24:52.562Z,55.01
2023-02-28T07:35:17.028Z,55.03
2023-02-28T07:45:41.314Z,55.12
2023-02-28T07:56:07.711Z,54.06
2023-02-28T08:06:32.104Z,53.96
2023-02-28T08:16:56.364Z,53.31
2023-02-28T08:27:21.223Z,54.26
2023-02-28T08:37:48.382Z,54.03
2023-02-28T08:48:14.094Z,53.17
2023-02-28T08:58:38.794Z,52.96
2023-02-28T09:09:04.704Z,52.67
2023-02-28T09:19:29.541Z,52.06
2023-02-28T09:29:54.366Z,51.32
2023-02-28T09:40:21.535Z,51.20
2023-02-28T09:50:49.258Z,50.91
2023-02-28T10:01:23.903Z,50.40
2023-02-28T10:11:53.656Z,49.83
2023-02-28T10:22:24.920Z,49.62
2023-02-28T10:32:53.890Z,49.61
2023-02-28T10:43:23.501Z,49.85
2023-02-28T10:54:01.528Z,49.57
2023-02-28T11:04:39.536Z,49.08
2023-02-28T11:15:07.623Z,49.34
2023-02-28T11:25:34.773Z,49.12
2023-02-28T11:36:04.782Z,48.73
2023-02-28T11:46:38.181Z,48.67
2023-02-28T11:57:16.869Z,48.74
2023-02-28T12:07:52.752Z,48.39
2023-02-28T12:18:35.546Z,49.04
2023-02-28T12:29:05.983Z,49.03
2023-02-28T12:39:48.339Z,49.59
2023-02-28T12:50:15.632Z,49.17
2023-02-28T13:00:56.865Z,49.55
2023-02-28T13:11:30.788Z,48.92
2023-02-28T13:21:56.223Z,48.84
2023-02-28T13:32:44.145Z,48.59
2023-02-28T13:43:10.528Z,48.26
2023-02-28T13:54:02.444Z,48.35
2023-02-28T14:04:59.106Z,48.14
2023-02-28T14:15:41.410Z,48.35
2023-02-28T14:26:20.385Z,48.33
2023-02-28T14:36:45.432Z,48.34
2023-02-28T14:47:16.861Z,47.64
2023-02-28T14:57:51.191Z,47.49
2023-02-28T15:08:17.209Z,47.39
2023-02-28T15:18:49.351Z,47.31
2023-02-28T15:29:15.957Z,47.36
2023-02-28T15:39:45.067Z,47.77
2023-02-28T15:50:15.152Z,47.07
2023-02-28T16:00:39.757Z,47.26
2023-02-28T16:11:03.990Z,46.94
2023-02-28T16:21:28.729Z,47.32
2023-02-28T16:31:53.830Z,47.17
2023-02-28T16:42:23.440Z,46.85
2023-02-28T16:52:48.306Z,46.74
2023-02-28T17:03:32.070Z,46.94
2023-02-28T17:13:57.396Z,47.30
2023-02-28T17:24:30.318Z,47.46
2023-02-28T17:34:55.388Z,47.77
2023-02-28T17:45:20.333Z,47.92
2023-02-28T17:55:44.603Z,48.35
2023-02-28T18:06:15.754Z,48.47
2023-02-28T18:16:40.028Z,48.39
2023-02-28T18:27:05.968Z,48.89
2023-02-28T18:37:30.141Z,49.42
2023-02-28T18:47:54.390Z,49.28
2023-02-28T18:58:18.724Z,49.43
2023-02-28T19:08:43.417Z,50.49
2023-02-28T19:19:08.242Z,51.44
2023-02-28T19:29:33.213Z,51.87
2023-02-28T19:39:58.227Z,52.49
2023-02-28T19:50:23.169Z,53.10
2023-02-28T20:00:48.288Z,53.83
2023-02-28T20:11:21.587Z,53.66
2023-02-28T20:21:46.473Z,53.43
2023-02-28T20:32:12.830Z,53.76
2023-02-28T20:42:37.453Z,53.48
2023-02-28T20:53:02.254Z,53.41
2023-02-28T21:03:27.100Z,53.68
2023-02-28T21:13:54.361Z,53.74
2023-02-28T21:24:19.915Z,54.51
2023-02-28T21:34:44.055Z,54.62
2023-02-28T21:45:09.655Z,55.10
2023-02-28T21:55:35.649Z,55.15
2023-02-28T22:05:59.794Z,55.43
2023-02-28T22:16:26.627Z,55.69
2023-02-28T22:26:51.683Z,55.71
2023-02-28T22:37:15.902Z,55.69
2023-02-28T22:47:40.111Z,55.92
2023-02-28T22:58:04.534Z,55.98
2023-02-28T23:08:28.975Z,55.72
2023-02-28T23:18:53.538Z,55.95
2023-02-28T23:29:19.061Z,56.00
2023-02-28T23:39:43.232Z,56.18
2023-02-28T23:50:08.959Z,55.90
